Time;durP1;ratioP1;P1;durP2;ratioP2;P2;SDS_P1;SDS_P2;PMS_P1;PMS_P2;Temp;Humidity;BMP_temperature;BMP_pressure;BME280_temperature;BME280_humidity;BME280_pressure;Samples;Min_cycle;Max_cycle;Signal;HPM_P1;HPM_P2
2021/08/07 00:01:36;;;;;;;3.22;1.33;;;;;;;22.14;61.27;100379.13;5034306;28;20049;-65
2021/08/07 00:04:01;;;;;;;5.70;1.40;;;;;;;22.14;61.39;100368.53;5034269;28;20026;-64
2021/08/07 00:06:27;;;;;;;4.07;1.47;;;;;;;22.14;61.52;100368.53;5034629;28;20021;-64
2021/08/07 00:08:52;;;;;;;3.90;1.50;;;;;;;22.13;61.61;100367.69;5033250;28;20286;-65
2021/08/07 00:11:17;;;;;;;3.42;1.30;;;;;;;22.13;61.87;100367.69;5034357;28;20032;-65
2021/08/07 00:13:43;;;;;;;3.70;1.40;;;;;;;22.12;61.61;100366.03;5034190;28;20034;-65
2021/08/07 00:16:09;;;;;;;3.35;1.25;;;;;;;22.13;61.34;100366.84;5033813;28;20442;-65
2021/08/07 00:18:34;;;;;;;3.65;1.40;;;;;;;22.13;61.59;100378.31;5034310;28;20030;-64
2021/08/07 00:20:59;;;;;;;4.45;1.30;;;;;;;22.12;61.55;100381.13;5034032;28;20025;-65
2021/08/07 00:23:25;;;;;;;2.83;1.20;;;;;;;22.10;61.19;100368.84;5033381;28;20025;-65
2021/08/07 00:25:50;;;;;;;2.08;1.10;;;;;;;22.11;61.25;100374.97;5032596;28;20380;-65
2021/08/07 00:28:15;;;;;;;3.13;1.37;;;;;;;22.11;61.27;100377.63;5034182;28;20038;-64
2021/08/07 00:30:40;;;;;;;3.93;1.50;;;;;;;22.08;61.00;100368.19;5033624;28;20282;-64
2021/08/07 00:33:08;;;;;;;3.10;1.40;;;;;;;22.09;61.43;100361.03;5033868;28;20325;-64
2021/08/07 00:35:34;;;;;;;4.65;1.45;;;;;;;22.06;61.30;100356.91;5034038;28;20262;-64
2021/08/07 00:37:59;;;;;;;3.25;1.70;;;;;;;22.07;61.37;100361.22;5032981;28;20392;-65
2021/08/07 00:40:24;;;;;;;3.58;1.52;;;;;;;22.03;61.27;100351.94;5033866;28;20440;-64
2021/08/07 00:42:50;;;;;;;4.38;1.70;;;;;;;22.08;61.25;100356.75;5032661;28;20053;-64
2021/08/07 00:45:18;;;;;;;4.60;1.48;;;;;;;22.08;61.29;100357.56;5033850;28;20021;-65
2021/08/07 00:47:43;;;;;;;3.80;1.67;;;;;;;22.05;61.34;100341.97;5033745;28;20112;-65
2021/08/07 00:50:11;;;;;;;5.93;1.33;;;;;;;22.06;61.13;100337.50;5032114;28;20152;-65
2021/08/07 00:52:37;;;;;;;5.32;1.80;;;;;;;22.05;61.41;100336.66;5033810;28;20029;-65
2021/08/07 00:55:03;;;;;;;4.78;1.67;;;;;;;22.05;61.23;100339.31;5033282;28;20903;-65
2021/08/07 00:57:29;;;;;;;3.45;1.65;;;;;;;22.03;61.39;100345.78;5032873;28;20499;-65
2021/08/07 00:59:54;;;;;;;4.93;1.50;;;;;;;22.04;61.13;100342.13;5033954;28;20108;-65
2021/08/07 01:02:22;;;;;;;4.22;1.58;;;;;;;22.04;61.05;100342.13;5034265;28;20021;-64
2021/08/07 01:04:56;;;;;;;3.92;1.75;;;;;;;22.05;60.99;100335.84;5032850;28;20018;-66
2021/08/07 01:07:35;;;;;;;4.18;1.60;;;;;;;22.04;61.01;100336.81;5033915;28;20041;-64
2021/08/07 01:10:37;;;;;;;3.78;1.60;;;;;;;22.03;61.11;100335.16;5033629;28;20037;-64
2021/08/07 01:13:10;;;;;;;4.60;1.50;;;;;;;22.03;61.07;100348.41;5032754;28;20048;-65
2021/08/07 01:15:40;;;;;;;3.30;1.55;;;;;;;22.02;60.85;100334.34;5033571;28;20021;-64
2021/08/07 01:18:09;;;;;;;3.78;1.42;;;;;;;22.03;60.98;100346.63;5033296;28;20025;-65
2021/08/07 01:20:38;;;;;;;3.33;1.48;;;;;;;22.03;60.71;100351.94;5034442;28;20032;-66
2021/08/07 01:23:22;;;;;;;5.97;1.65;;;;;;;22.01;61.02;100353.88;5033848;28;20072;-65
2021/08/07 01:25:56;;;;;;;4.22;1.40;;;;;;;22.02;60.96;100355.56;5033205;28;20359;-65
2021/08/07 01:28:25;;;;;;;;;;;;;;;22.01;60.98;100350.41;5034187;28;20041;-65
2021/08/07 01:30:54;;;;;;;3.40;1.27;;;;;;;22.00;60.89;100352.25;5033609;28;19984;-65
2021/08/07 01:33:21;;;;;;;6.00;1.75;;;;;;;21.93;60.80;100343.25;5033637;28;20035;-64
2021/08/07 01:35:49;;;;;;;3.47;1.38;;;;;;;21.99;60.80;100344.44;5032596;28;20037;-65
2021/08/07 01:38:15;;;;;;;3.67;1.52;;;;;;;21.98;60.80;100345.44;5034257;28;20021;-65
2021/08/07 01:40:40;;;;;;;4.78;1.73;;;;;;;21.98;60.83;100343.59;5033097;28;20087;-65
2021/08/07 01:43:09;;;;;;;3.65;1.40;;;;;;;21.96;60.58;100348.25;5033098;28;20029;-65
2021/08/07 01:45:35;;;;;;;3.90;1.48;;;;;;;21.96;60.91;100336.81;5033363;28;20163;-65
2021/08/07 01:48:12;;;;;;;4.30;1.27;;;;;;;21.97;60.80;100347.25;5031947;28;20207;-64
2021/08/07 01:50:44;;;;;;;4.15;1.48;;;;;;;21.98;60.82;100353.41;5033334;28;20473;-64
2021/08/07 01:53:13;;;;;;;4.50;1.30;;;;;;;21.96;60.64;100345.59;5032111;28;20033;-65
2021/08/07 01:55:49;;;;;;;4.18;1.42;;;;;;;21.96;60.60;100345.59;5033265;28;20036;-65
2021/08/07 01:58:45;;;;;;;3.20;1.40;;;;;;;21.95;60.60;100343.91;5033006;28;20500;-65
2021/08/07 02:01:12;;;;;;;4.20;1.35;;;;;;;21.93;60.66;100338.78;5032543;28;20032;-65
2021/08/07 02:03:42;;;;;;;2.80;1.40;;;;;;;21.95;60.54;100343.91;5033010;28;20022;-65
2021/08/07 02:06:07;;;;;;;3.58;1.33;;;;;;;21.95;60.66;100349.22;5032910;28;20068;-64
2021/08/07 02:08:36;;;;;;;3.28;1.27;;;;;;;21.94;60.62;100339.63;5032560;28;20060;-65
2021/08/07 02:11:02;;;;;;;2.65;1.10;;;;;;;21.94;60.73;100336.97;5032242;28;20463;-64
2021/08/07 02:13:32;;;;;;;3.92;1.40;;;;;;;21.93;60.48;100335.31;5032455;28;20033;-65
2021/08/07 02:16:02;;;;;;;6.05;1.73;;;;;;;21.93;60.56;100338.78;5031282;28;20083;-65
2021/08/07 02:18:32;;;;;;;3.15;1.30;;;;;;;21.91;60.31;100332.00;5032580;28;20021;-64
2021/08/07 02:20:58;;;;;;;2.72;1.20;;;;;;;21.92;60.46;100330.97;5032185;28;20021;-64
2021/08/07 02:23:24;;;;;;;3.08;1.30;;;;;;;21.88;60.44;100317.22;5031784;28;20079;-65
2021/08/07 02:25:54;;;;;;;5.28;1.42;;;;;;;21.90;60.57;100330.31;5032257;28;20041;-63
2021/08/07 02:28:21;;;;;;;2.67;1.10;;;;;;;21.92;60.46;100330.97;5031783;28;20053;-65
2021/08/07 02:30:47;;;;;;;3.67;1.40;;;;;;;21.91;60.44;100329.34;5032024;28;20413;-66
2021/08/07 02:33:16;;;;;;;2.95;1.33;;;;;;;21.90;60.31;100331.16;5032610;28;20025;-66
2021/08/07 02:35:45;;;;;;;3.88;1.40;;;;;;;21.90;60.43;100338.28;5031777;28;20022;-65
2021/08/07 02:38:10;;;;;;;3.65;1.38;;;;;;;21.90;60.41;100340.94;5032301;28;20022;-65
2021/08/07 02:40:36;;;;;;;3.58;1.20;;;;;;;21.90;60.41;100336.47;5032254;28;20474;-65
2021/08/07 02:43:02;;;;;;;3.22;1.30;;;;;;;21.90;60.44;100338.28;5031273;28;20028;-65
2021/08/07 02:45:31;;;;;;;3.15;1.10;;;;;;;21.89;60.22;100340.09;5031841;28;20486;-64
2021/08/07 02:47:57;;;;;;;4.20;1.70;;;;;;;21.87;60.37;100334.16;5032065;28;20117;-65
2021/08/07 02:50:22;;;;;;;3.38;1.35;;;;;;;21.88;60.30;100338.44;5034690;28;20037;-65
2021/08/07 02:52:48;;;;;;;3.45;1.15;;;;;;;21.88;60.29;100329.66;5035388;28;20028;-65
2021/08/07 02:55:13;;;;;;;2.80;1.10;;;;;;;21.88;60.30;100330.47;5035368;28;20048;-65
2021/08/07 02:57:39;;;;;;;3.45;1.30;;;;;;;21.85;60.27;100320.19;5034644;28;20499;-64
2021/08/07 03:00:05;;;;;;;3.50;1.17;;;;;;;21.84;60.58;100323.84;5035293;28;20024;-65
2021/08/07 03:02:34;;;;;;;2.35;1.20;;;;;;;21.88;60.22;100329.66;5035076;28;20017;-64
2021/08/07 03:04:59;;;;;;;3.17;1.33;;;;;;;21.87;60.25;100331.50;5034544;28;20495;-65
2021/08/07 03:07:24;;;;;;;3.47;1.27;;;;;;;21.87;60.18;100330.66;5035535;28;20087;-65
2021/08/07 03:09:52;;;;;;;2.90;1.10;;;;;;;21.88;60.37;100324.34;5035324;28;20275;-65
2021/08/07 03:12:18;;;;;;;3.97;1.38;;;;;;;21.87;60.36;100315.56;5034735;28;20302;-65
2021/08/07 03:14:43;;;;;;;3.97;1.48;;;;;;;21.87;60.11;100309.41;5035409;28;20567;-65
2021/08/07 03:17:09;;;;;;;3.25;1.30;;;;;;;21.86;60.12;100308.59;5035601;28;20029;-65
2021/08/07 03:19:34;;;;;;;3.58;1.33;;;;;;;21.84;60.13;100301.78;5034731;28;20025;-65
2021/08/07 03:21:59;;;;;;;3.92;1.30;;;;;;;21.86;60.35;100307.78;5035064;28;20527;-64
2021/08/07 03:24:25;;;;;;;2.22;1.10;;;;;;;21.85;60.14;100300.81;5035207;28;20108;-64
2021/08/07 03:26:50;;;;;;;3.25;1.20;;;;;;;21.85;60.07;100306.94;5034063;28;20091;-64
2021/08/07 03:29:18;;;;;;;3.65;1.50;;;;;;;21.85;60.08;100306.94;5035192;28;20377;-66
2021/08/07 03:31:44;;;;;;;2.58;1.08;;;;;;;21.84;60.14;100299.97;5034232;28;20053;-66
2021/08/07 03:34:09;;;;;;;2.97;1.20;;;;;;;21.83;60.22;100305.44;5035207;28;20061;-65
2021/08/07 03:36:35;;;;;;;3.55;1.23;;;;;;;21.82;59.97;100301.13;5035232;28;20059;-64
2021/08/07 03:39:00;;;;;;;3.03;1.00;;;;;;;21.82;60.21;100298.47;5033935;28;20029;-65
2021/08/07 03:41:25;;;;;;;2.33;1.10;;;;;;;21.83;60.28;100300.16;5035025;28;20537;-65
2021/08/07 03:43:51;;;;;;;4.88;1.40;;;;;;;21.82;60.16;100295.81;5034435;28;20033;-65
2021/08/07 03:46:19;;;;;;;5.20;1.50;;;;;;;21.83;60.20;100302.78;5034175;28;20112;-65
2021/08/07 03:48:44;;;;;;;3.60;1.27;;;;;;;21.83;60.03;100298.31;5034682;28;20061;-65
2021/08/07 03:51:09;;;;;;;2.93;1.13;;;;;;;21.83;59.95;100286.88;5034964;28;20021;-64
2021/08/07 03:53:34;;;;;;;3.58;1.27;;;;;;;21.81;59.70;100287.03;5034008;28;20283;-65
2021/08/07 03:56:00;;;;;;;3.10;1.17;;;;;;;21.82;60.02;100296.63;5034443;28;20065;-65
2021/08/07 03:58:28;;;;;;;2.38;1.10;;;;;;;21.81;59.81;100294.16;5034716;28;20298;-65
2021/08/07 04:00:53;;;;;;;3.88;1.30;;;;;;;21.81;59.87;100281.75;5033515;28;20025;-65
2021/08/07 04:03:19;;;;;;;3.40;1.20;;;;;;;21.82;59.95;100294.00;5034686;28;20037;-65
2021/08/07 04:05:44;;;;;;;4.00;1.38;;;;;;;21.81;59.75;100289.69;5034170;28;20266;-65
2021/08/07 04:08:09;;;;;;;3.57;1.40;;;;;;;21.81;59.77;100294.16;5033828;28;20053;-65
2021/08/07 04:10:35;;;;;;;3.45;1.10;;;;;;;21.80;59.77;100292.50;5034498;28;20271;-65
2021/08/07 04:13:01;;;;;;;5.80;1.30;;;;;;;21.80;59.77;100287.22;5033954;28;20052;-65
2021/08/07 04:15:29;;;;;;;4.07;1.27;;;;;;;21.79;59.58;100290.84;5033772;28;20481;-65
2021/08/07 04:17:55;;;;;;;4.10;1.17;;;;;;;21.78;59.92;100287.38;5034214;28;20029;-66
2021/08/07 04:20:21;;;;;;;2.92;1.10;;;;;;;21.79;59.67;100291.66;5034463;28;20579;-65
2021/08/07 04:22:46;;;;;;;4.13;1.13;;;;;;;21.76;59.72;100283.19;5033305;28;20429;-65
2021/08/07 04:25:12;;;;;;;4.05;1.40;;;;;;;21.78;59.62;100289.16;5034215;28;20024;-65
2021/08/07 04:27:41;;;;;;;3.40;1.30;;;;;;;21.76;59.46;100283.19;5034019;28;20025;-65
2021/08/07 04:30:08;;;;;;;2.80;1.08;;;;;;;21.78;59.66;100286.50;5033020;28;20040;-65
2021/08/07 04:32:34;;;;;;;2.80;1.00;;;;;;;21.77;59.59;100284.88;5034114;28;20034;-66
2021/08/07 04:34:59;;;;;;;4.03;1.40;;;;;;;21.76;59.52;100280.56;5033083;28;20028;-65
2021/08/07 04:37:27;;;;;;;2.60;1.17;;;;;;;21.77;59.66;100284.88;5033828;28;20330;-65
2021/08/07 04:39:52;;;;;;;3.22;1.30;;;;;;;21.77;59.45;100285.69;5033427;28;20544;-65
2021/08/07 04:42:18;;;;;;;3.05;1.20;;;;;;;21.74;59.41;100293.97;5033314;28;20030;-65
2021/08/07 04:44:43;;;;;;;3.45;1.20;;;;;;;21.75;59.65;100290.34;5033807;28;20022;-64
2021/08/07 04:47:08;;;;;;;3.05;1.20;;;;;;;21.76;59.65;100284.03;5033586;28;20075;-64
2021/08/07 04:49:34;;;;;;;3.15;1.13;;;;;;;21.74;59.65;100281.53;5033066;28;20087;-65
2021/08/07 04:52:00;;;;;;;3.17;1.10;;;;;;;21.75;59.80;100282.38;5033357;28;20072;-65
2021/08/07 04:54:26;;;;;;;3.47;1.17;;;;;;;21.75;59.72;100282.38;5033383;28;20045;-65
2021/08/07 04:56:51;;;;;;;3.88;1.25;;;;;;;21.76;59.75;100278.72;5032483;28;20035;-65
2021/08/07 04:59:17;;;;;;;4.07;1.57;;;;;;;21.73;59.62;100277.25;5033814;28;20026;-66
2021/08/07 05:01:42;;;;;;;4.07;1.40;;;;;;;21.72;59.62;100278.22;5033536;28;20754;-65
2021/08/07 05:04:07;;;;;;;3.30;1.10;;;;;;;21.75;60.02;100274.44;5032335;28;20563;-66
2021/08/07 05:06:32;;;;;;;3.20;1.10;;;;;;;21.75;59.52;100269.13;5033391;28;20026;-65
2021/08/07 05:08:58;;;;;;;2.97;1.10;;;;;;;21.74;59.68;100265.63;5032880;28;20052;-64
2021/08/07 05:11:23;;;;;;;3.45;1.00;;;;;;;21.75;59.82;100266.47;5032084;28;20267;-65
2021/08/07 05:13:48;;;;;;;3.95;1.10;;;;;;;21.73;59.56;100260.50;5033282;28;20473;-64
2021/08/07 05:16:14;;;;;;;3.13;1.33;;;;;;;21.76;59.66;100264.63;5033243;28;20022;-65
2021/08/07 05:18:39;;;;;;;3.17;1.00;;;;;;;21.74;59.74;100257.66;5032769;28;20087;-65
2021/08/07 05:21:04;;;;;;;2.75;1.00;;;;;;;21.76;59.57;100257.50;5032850;28;20022;-65
2021/08/07 05:23:29;;;;;;;3.05;1.25;;;;;;;21.76;59.54;100259.34;5033066;28;20028;-66
2021/08/07 05:25:55;;;;;;;3.37;0.97;;;;;;;21.75;59.47;100250.56;5032113;28;20033;-65
2021/08/07 05:28:20;;;;;;;2.60;1.20;;;;;;;21.78;59.37;100254.69;5032924;28;20636;-65
2021/08/07 05:30:45;;;;;;;2.30;1.00;;;;;;;21.73;59.72;100249.91;5032734;28;20316;-66
2021/08/07 05:33:13;;;;;;;2.58;1.10;;;;;;;21.76;59.58;100257.50;5032276;28;20282;-65
2021/08/07 05:35:38;;;;;;;2.13;1.10;;;;;;;21.77;59.47;100256.53;5032939;28;20116;-65
2021/08/07 05:38:07;;;;;;;2.95;0.98;;;;;;;21.77;59.76;100253.88;5032423;28;20055;-64
2021/08/07 05:40:32;;;;;;;2.83;1.10;;;;;;;21.77;59.70;100259.19;5032013;28;20026;-65
2021/08/07 05:43:00;;;;;;;2.47;1.03;;;;;;;21.77;59.63;100261.81;5032639;28;20462;-63
2021/08/07 05:45:25;;;;;;;2.15;1.00;;;;;;;21.77;59.67;100253.06;5032219;28;20267;-63
2021/08/07 05:47:51;;;;;;;2.97;1.13;;;;;;;21.76;59.79;100248.72;5031723;28;20477;-65
2021/08/07 05:50:16;;;;;;;3.75;1.00;;;;;;;21.78;59.84;100260.00;5032664;28;20504;-64
2021/08/07 05:52:44;;;;;;;2.53;0.95;;;;;;;21.78;59.63;100247.59;5031677;28;20029;-64
2021/08/07 05:55:13;;;;;;;3.67;1.20;;;;;;;21.80;60.04;100250.06;5032509;28;20045;-64
2021/08/07 05:57:38;;;;;;;3.17;1.10;;;;;;;21.79;59.54;100243.09;5032655;28;20068;-64
2021/08/07 06:00:04;;;;;;;2.65;1.10;;;;;;;21.82;59.73;100242.78;5031598;28;20024;-64
2021/08/07 06:02:32;;;;;;;3.35;0.98;;;;;;;21.82;59.89;100243.59;5032505;28;20508;-64
2021/08/07 06:04:58;;;;;;;2.88;1.10;;;;;;;21.80;59.81;100231.50;5032013;28;20064;-64
2021/08/07 06:07:23;;;;;;;2.70;1.10;;;;;;;21.83;59.80;100242.63;5031448;28;20102;-64
2021/08/07 06:09:51;;;;;;;7.82;1.33;;;;;;;21.84;59.79;100240.78;5032304;28;20488;-63
2021/08/07 06:12:16;;;;;;;4.00;1.10;;;;;;;21.81;59.82;100239.31;5032203;28;20517;-63
2021/08/07 06:14:47;;;;;;;3.35;1.00;;;;;;;21.85;59.71;100247.75;5031646;28;20116;-64
2021/08/07 06:17:13;;;;;;;3.65;1.40;;;;;;;21.85;59.75;100245.91;5032284;28;20025;-63
2021/08/07 06:19:38;;;;;;;3.13;1.23;;;;;;;21.85;59.86;100239.78;5032208;28;20499;-64
2021/08/07 06:22:03;;;;;;;3.25;1.00;;;;;;;21.85;59.67;100239.78;5030994;28;20030;-64
2021/08/07 06:24:32;;;;;;;2.55;1.13;;;;;;;21.85;59.67;100243.28;5032393;28;20054;-64
2021/08/07 06:26:58;;;;;;;2.17;1.00;;;;;;;21.85;59.74;100239.78;5031928;28;20060;-65
2021/08/07 06:29:23;;;;;;;3.92;1.10;;;;;;;21.84;59.94;100240.78;5031460;28;20069;-71
2021/08/07 06:31:48;;;;;;;2.10;0.82;;;;;;;21.83;59.64;100237.31;5031860;28;20021;-66
2021/08/07 06:34:14;;;;;;;1.98;0.90;;;;;;;21.84;59.50;100238.97;5032101;28;20083;-63
2021/08/07 06:36:41;;;;;;;4.90;1.15;;;;;;;21.84;59.92;100238.13;5031246;28;20466;-63
2021/08/07 06:39:07;;;;;;;3.03;1.10;;;;;;;21.86;59.93;100239.63;5031824;28;20095;-64
2021/08/07 06:41:32;;;;;;;3.22;1.20;;;;;;;21.85;60.22;100237.97;5031594;28;20018;-64
2021/08/07 06:43:58;;;;;;;3.08;1.20;;;;;;;21.87;60.52;100238.66;5031909;28;20397;-64
2021/08/07 06:46:26;;;;;;;3.05;1.13;;;;;;;21.89;60.44;100239.31;5032046;28;20026;-65
2021/08/07 06:48:51;;;;;;;3.25;1.15;;;;;;;21.90;60.54;100234.81;5031153;28;20045;-63
2021/08/07 06:51:16;;;;;;;2.17;1.00;;;;;;;21.91;60.77;100233.84;5032002;28;20445;-64
2021/08/07 06:53:42;;;;;;;3.53;1.30;;;;;;;21.90;60.61;100225.06;5031319;28;20119;-66
2021/08/07 06:56:07;;;;;;;5.43;1.20;;;;;;;21.92;60.71;100222.22;5031128;28;20270;-66
2021/08/07 06:58:35;;;;;;;4.15;1.48;;;;;;;21.95;60.58;100221.88;5031672;28;20478;-64
2021/08/07 07:01:00;;;;;;;4.43;1.38;;;;;;;21.98;60.65;100220.75;5031610;28;20037;-64
2021/08/07 07:03:31;;;;;;;2.67;1.00;;;;;;;21.99;60.84;100219.75;5031200;28;20025;-65
2021/08/07 07:05:56;;;;;;;2.72;1.00;;;;;;;22.01;60.73;100220.41;5031648;28;20273;-65
2021/08/07 07:08:22;;;;;;;4.47;1.40;;;;;;;22.03;60.89;100207.81;5031781;28;20033;-64
2021/08/07 07:10:47;;;;;;;3.70;1.00;;;;;;;22.01;60.75;100207.97;5030881;28;20834;-65
2021/08/07 07:13:13;;;;;;;2.38;1.00;;;;;;;22.06;60.71;100210.13;5031655;28;20021;-65
2021/08/07 07:15:38;;;;;;;3.63;1.25;;;;;;;22.08;60.78;100216.13;5031877;28;20060;-65
2021/08/07 07:18:04;;;;;;;3.22;1.10;;;;;;;22.06;60.64;100213.63;5030710;28;20029;-67
2021/08/07 07:20:29;;;;;;;2.25;1.00;;;;;;;22.11;60.62;100221.06;5031474;28;20112;-66
2021/08/07 07:22:54;;;;;;;4.47;1.20;;;;;;;22.11;60.65;100221.06;5031600;28;20060;-65
2021/08/07 07:25:22;;;;;;;3.45;1.10;;;;;;;22.13;60.71;100220.91;5031171;28;20030;-67
2021/08/07 07:27:48;;;;;;;6.47;1.40;;;;;;;22.14;61.16;100220.72;5031197;28;20029;-65
2021/08/07 07:30:20;;;;;;;3.92;1.08;;;;;;;22.17;60.84;100223.06;5031581;28;20495;-65
2021/08/07 07:32:45;;;;;;;4.53;1.10;;;;;;;22.20;60.87;100229.88;5031093;28;20022;-67
2021/08/07 07:35:14;;;;;;;2.47;0.90;;;;;;;22.19;61.17;100226.41;5036091;28;20025;-66
2021/08/07 07:37:39;;;;;;;4.78;1.17;;;;;;;22.24;61.24;100225.91;5036293;28;20149;-65
2021/08/07 07:40:07;;;;;;;2.58;1.00;;;;;;;22.24;61.34;100215.28;5034175;28;20112;-65
2021/08/07 07:42:33;;;;;;;2.58;0.90;;;;;;;22.27;61.01;100217.56;5035903;28;20021;-65
2021/08/07 07:44:58;;;;;;;2.80;1.08;;;;;;;22.27;61.02;100213.13;5034600;28;20381;-64
2021/08/07 07:47:23;;;;;;;2.20;0.82;;;;;;;22.28;60.79;100203.31;5035231;28;20103;-65
2021/08/07 07:49:48;;;;;;;3.67;1.43;;;;;;;22.31;60.70;100210.16;5036228;28;20381;-65
2021/08/07 07:52:14;;;;;;;2.75;0.90;;;;;;;22.32;60.80;100211.78;5034794;28;20350;-65
2021/08/07 07:54:39;;;;;;;2.80;1.10;;;;;;;22.33;60.48;100205.50;5035309;28;20037;-66
2021/08/07 07:57:04;;;;;;;2.80;1.00;;;;;;;22.33;60.61;100214.28;5034773;28;20263;-64
2021/08/07 07:59:30;;;;;;;2.88;1.10;;;;;;;22.30;60.60;100201.34;5034206;28;20270;-64
2021/08/07 08:01:56;;;;;;;2.28;0.80;;;;;;;22.33;60.18;100210.81;5034533;28;20090;-62
2021/08/07 08:04:21;;;;;;;2.85;1.10;;;;;;;22.35;60.22;100208.81;5034919;28;20108;-65
2021/08/07 08:06:47;;;;;;;1.87;0.83;;;;;;;22.33;60.43;100198.34;5034528;28;20461;-66
2021/08/07 08:09:12;;;;;;;2.42;0.98;;;;;;;22.37;60.35;100206.84;5034933;28;20368;-66
2021/08/07 08:11:37;;;;;;;3.40;0.90;;;;;;;22.38;60.24;100205.81;5034429;28;20033;-65
2021/08/07 08:14:03;;;;;;;2.40;0.90;;;;;;;22.38;60.31;100203.16;5034524;28;20037;-65
2021/08/07 08:16:31;;;;;;;3.30;1.00;;;;;;;22.38;60.20;100206.66;5035602;28;20052;-65
2021/08/07 08:18:56;;;;;;;1.85;0.80;;;;;;;22.37;60.14;100205.00;5034550;28;20021;-65
2021/08/07 08:21:21;;;;;;;3.17;1.10;;;;;;;22.36;59.95;100200.69;5034598;28;20029;-59
2021/08/07 08:23:47;;;;;;;1.85;0.80;;;;;;;22.37;60.22;100193.56;5034666;28;20167;-61
2021/08/07 08:26:13;;;;;;;1.95;0.80;;;;;;;22.37;60.05;100199.69;5035350;28;20527;-61
2021/08/07 08:28:38;;;;;;;3.78;1.10;;;;;;;22.36;60.42;100186.59;5034094;28;20111;-62
2021/08/07 08:31:07;;;;;;;2.90;1.10;;;;;;;22.36;60.01;100190.06;5034179;28;20465;-63
2021/08/07 08:33:35;;;;;;;2.20;0.90;;;;;;;22.33;60.18;100187.75;5034864;28;20025;-64
2021/08/07 08:36:01;;;;;;;2.80;0.90;;;;;;;22.34;60.27;100186.75;5034011;28;20101;-64
2021/08/07 08:38:26;;;;;;;3.58;0.90;;;;;;;22.36;60.15;100176.78;5034940;28;20449;-64
2021/08/07 08:40:56;;;;;;;2.28;1.00;;;;;;;22.37;59.86;100185.59;5034395;28;20025;-63
2021/08/07 08:43:21;;;;;;;4.50;1.20;;;;;;;22.35;59.89;100177.81;5033459;28;20021;-64
2021/08/07 08:45:47;;;;;;;3.10;1.00;;;;;;;22.34;59.84;100181.44;5032855;28;20409;-64
2021/08/07 08:48:14;;;;;;;3.30;1.00;;;;;;;22.35;60.03;100183.13;5033837;28;20033;-64
2021/08/07 08:50:39;;;;;;;2.85;1.35;;;;;;;22.32;59.88;100180.78;5034324;28;20026;-62
2021/08/07 08:53:05;;;;;;;2.90;0.93;;;;;;;22.32;59.84;100183.44;5033885;28;20484;-63
2021/08/07 08:55:31;;;;;;;1.88;0.82;;;;;;;22.34;60.07;100177.97;5033342;28;20027;-63
2021/08/07 08:57:56;;;;;;;2.65;0.90;;;;;;;22.33;59.80;100185.09;5033548;28;20033;-62
2021/08/07 09:00:22;;;;;;;3.97;1.02;;;;;;;22.34;59.79;100170.81;5033875;28;20021;-61
2021/08/07 09:02:47;;;;;;;2.88;1.00;;;;;;;22.36;59.93;100175.97;5032795;28;20021;-61
2021/08/07 09:05:14;;;;;;;2.88;0.98;;;;;;;22.36;59.94;100173.31;5034183;28;20508;-62
2021/08/07 09:07:39;;;;;;;2.60;1.00;;;;;;;22.38;59.73;100163.34;5036985;28;20026;-61
2021/08/07 09:10:06;;;;;;;2.47;0.82;;;;;;;22.40;59.75;100161.38;5033291;28;20025;-65
2021/08/07 09:12:46;;;;;;;4.05;1.17;;;;;;;22.38;59.97;100169.50;5033723;28;20029;-63
2021/08/07 09:15:35;;;;;;;2.03;0.93;;;;;;;22.38;59.60;100164.19;5035106;28;20061;-62
2021/08/07 09:18:18;;;;;;;4.75;1.20;;;;;;;22.38;59.76;100155.38;5033365;28;20033;-62
2021/08/07 09:20:48;;;;;;;2.70;0.90;;;;;;;22.40;59.76;100161.38;5034351;28;20052;-64
2021/08/07 09:23:15;;;;;;;4.40;1.30;;;;;;;22.39;59.73;100163.19;5033463;28;20487;-62
2021/08/07 09:25:43;;;;;;;2.25;1.10;;;;;;;22.37;59.73;100157.22;5034584;28;20077;-63
2021/08/07 09:28:10;;;;;;;2.65;0.90;;;;;;;22.38;59.72;100160.69;5033677;28;20045;-63
2021/08/07 09:30:38;;;;;;;3.28;1.15;;;;;;;22.36;59.51;100160.88;5032585;28;20026;-61
2021/08/07 09:33:08;;;;;;;2.92;0.75;;;;;;;22.38;59.81;100161.53;5033854;28;20025;-63
2021/08/07 09:35:44;;;;;;;3.08;0.90;;;;;;;22.36;59.66;100150.25;5034935;28;20024;-64
2021/08/07 09:38:11;;;;;;;3.13;0.95;;;;;;;22.37;59.48;100148.44;5035400;28;20025;-64
2021/08/07 09:40:41;;;;;;;2.35;0.80;;;;;;;22.38;59.62;100147.41;5033842;28;20103;-64
2021/08/07 09:43:07;;;;;;;2.53;0.85;;;;;;;22.40;59.45;100145.44;5033520;28;20026;-64
2021/08/07 09:45:36;;;;;;;2.35;0.95;;;;;;;22.38;59.59;100135.00;5034888;28;20028;-64
2021/08/07 09:48:26;;;;;;;2.85;1.10;;;;;;;22.39;59.36;100141.13;5033929;28;20550;-64
2021/08/07 09:50:51;;;;;;;3.65;1.13;;;;;;;22.41;59.38;100136.47;4986750;28;20544;-63
2021/08/07 09:53:20;;;;;;;3.88;1.10;;;;;;;22.39;59.43;100135.81;5031818;28;20041;-61
2021/08/07 09:55:59;;;;;;;3.90;1.33;;;;;;;22.42;59.49;100138.94;5033640;28;20482;-64
2021/08/07 09:58:25;;;;;;;2.85;0.80;;;;;;;22.44;59.27;100147.56;5032311;28;20052;-64
2021/08/07 10:00:56;;;;;;;3.30;1.00;;;;;;;22.42;59.34;100144.25;5035380;28;20034;-64
2021/08/07 10:03:42;;;;;;;3.78;1.05;;;;;;;22.43;59.08;100142.41;5034792;28;20104;-63
2021/08/07 10:06:22;;;;;;;5.05;1.10;;;;;;;22.45;59.08;100141.28;5031412;28;20087;-64
2021/08/07 10:08:50;;;;;;;5.20;1.20;;;;;;;22.44;58.95;100139.59;5032309;28;20033;-64
2021/08/07 10:11:15;;;;;;;3.35;1.20;;;;;;;22.44;59.34;100136.13;5032790;28;20041;-63
2021/08/07 10:13:41;;;;;;;2.65;1.02;;;;;;;22.42;59.27;100141.59;5031659;28;20096;-61
2021/08/07 10:16:07;;;;;;;3.30;1.20;;;;;;;22.42;59.42;100138.94;5032589;28;20029;-63
2021/08/07 10:18:33;;;;;;;3.25;1.10;;;;;;;22.42;59.09;100138.13;5032240;28;20032;-64
2021/08/07 10:21:03;;;;;;;5.65;1.27;;;;;;;22.41;59.25;100128.50;5031192;28;20025;-64
2021/08/07 10:23:31;;;;;;;4.05;1.20;;;;;;;22.41;58.66;100131.16;5032296;28;20359;-62
2021/08/07 10:25:56;;;;;;;2.83;0.95;;;;;;;22.40;58.54;100140.94;5033588;28;20032;-63
2021/08/07 10:28:24;;;;;;;3.78;1.10;;;;;;;22.40;58.49;100140.13;5033300;28;20033;-63
2021/08/07 10:30:53;;;;;;;4.20;1.10;;;;;;;22.38;58.50;100132.34;5032489;28;20198;-64
2021/08/07 10:33:20;;;;;;;2.20;0.80;;;;;;;22.34;58.38;100125.69;5032105;28;20092;-61
2021/08/07 10:35:47;;;;;;;5.88;1.20;;;;;;;22.37;58.83;100128.03;5030979;28;20025;-61
2021/08/07 10:38:13;;;;;;;4.90;1.25;;;;;;;22.38;58.70;100120.88;5031942;28;20022;-61
2021/08/07 10:40:38;;;;;;;3.35;1.00;;;;;;;22.39;58.77;100125.19;5031332;28;20381;-61
2021/08/07 10:43:06;;;;;;;4.83;1.10;;;;;;;22.41;59.08;100121.38;5031849;28;20091;-61
2021/08/07 10:45:32;;;;;;;4.50;1.10;;;;;;;22.41;58.89;100117.88;5033174;28;20281;-65
2021/08/07 10:47:57;;;;;;;4.15;1.20;;;;;;;22.42;58.77;100114.25;5031600;28;20038;-65
2021/08/07 10:50:28;;;;;;;2.67;0.88;;;;;;;22.42;58.72;100115.06;5032369;28;20029;-62
2021/08/07 10:52:57;;;;;;;3.65;1.10;;;;;;;22.44;59.03;100117.53;5031997;28;20029;-63
2021/08/07 10:55:45;;;;;;;3.42;1.00;;;;;;;22.46;58.52;100112.88;5031664;28;20046;-64
2021/08/07 10:58:35;;;;;;;3.35;1.00;;;;;;;22.48;58.84;100102.94;5032534;28;20026;-65
2021/08/07 11:01:22;;;;;;;3.00;1.00;;;;;;;22.50;58.77;100095.63;5031851;28;20037;-65
2021/08/07 11:03:49;;;;;;;4.80;1.30;;;;;;;22.51;58.62;100089.31;5031200;28;20026;-63
2021/08/07 11:06:14;;;;;;;6.03;1.40;;;;;;;22.52;58.72;100087.50;5032158;28;20030;-64
2021/08/07 11:08:40;;;;;;;3.85;1.30;;;;;;;22.53;58.72;100076.69;5032208;28;20025;-63
2021/08/07 11:11:28;;;;;;;5.03;1.00;;;;;;;22.55;58.72;100077.34;5034609;28;20026;-63
2021/08/07 11:13:54;;;;;;;3.95;1.13;;;;;;;22.56;58.83;100070.22;5036587;28;20032;-62
2021/08/07 11:16:20;;;;;;;2.83;1.05;;;;;;;22.56;58.33;100062.25;5035272;28;20075;-63
2021/08/07 11:18:47;;;;;;;4.38;1.10;;;;;;;22.57;58.83;100064.75;5035580;28;20017;-62
2021/08/07 11:21:51;;;;;;;4.55;1.00;;;;;;;22.60;58.43;100068.88;5035433;28;20034;-64
2021/08/07 11:24:47;;;;;;;2.77;0.90;;;;;;;22.60;57.88;100056.41;5034805;28;20044;-64
2021/08/07 11:27:13;;;;;;;4.38;1.30;;;;;;;22.62;57.03;100053.56;5034911;28;20033;-63